sensor_id;sensor_type;location;lat;lon;timestamp;P1;durP1;ratioP1;P2;durP2;ratioP2
54613;SDS011;40514;52.758;6.360;2022-11-20T00:01:43;14.13;;;8.67;;
54613;SDS011;40514;52.758;6.360;2022-11-20T00:04:10;14.35;;;8.43;;
54613;SDS011;40514;52.758;6.360;2022-11-20T00:06:36;14.20;;;7.75;;
54613;SDS011;40514;52.758;6.360;2022-11-20T00:09:02;11.97;;;7.63;;
54613;SDS011;40514;52.758;6.360;2022-11-20T00:11:28;14.93;;;7.50;;
54613;SDS011;40514;52.758;6.360;2022-11-20T00:13:55;12.48;;;7.60;;
54613;SDS011;40514;52.758;6.360;2022-11-20T00:16:23;12.80;;;8.00;;
54613;SDS011;40514;52.758;6.360;2022-11-20T00:18:49;13.55;;;7.70;;
54613;SDS011;40514;52.758;6.360;2022-11-20T00:21:16;15.38;;;8.32;;
54613;SDS011;40514;52.758;6.360;2022-11-20T00:23:46;15.65;;;9.02;;
54613;SDS011;40514;52.758;6.360;2022-11-20T00:26:13;13.45;;;8.60;;
54613;SDS011;40514;52.758;6.360;2022-11-20T00:28:40;15.40;;;8.75;;
54613;SDS011;40514;52.758;6.360;2022-11-20T00:31:08;13.30;;;8.88;;
54613;SDS011;40514;52.758;6.360;2022-11-20T00:33:38;14.93;;;8.60;;
54613;SDS011;40514;52.758;6.360;2022-11-20T00:36:05;15.50;;;9.97;;
54613;SDS011;40514;52.758;6.360;2022-11-20T00:38:32;14.27;;;9.40;;
54613;SDS011;40514;52.758;6.360;2022-11-20T00:40:58;16.25;;;9.73;;
54613;SDS011;40514;52.758;6.360;2022-11-20T00:43:25;15.43;;;10.13;;
54613;SDS011;40514;52.758;6.360;2022-11-20T00:45:58;17.65;;;10.80;;
54613;SDS011;40514;52.758;6.360;2022-11-20T00:48:28;16.25;;;10.50;;
54613;SDS011;40514;52.758;6.360;2022-11-20T00:50:54;16.97;;;10.80;;
54613;SDS011;40514;52.758;6.360;2022-11-20T00:53:20;17.52;;;11.10;;
54613;SDS011;40514;52.758;6.360;2022-11-20T00:58:43;16.60;;;10.25;;
54613;SDS011;40514;52.758;6.360;2022-11-20T01:01:13;16.85;;;10.43;;
54613;SDS011;40514;52.758;6.360;2022-11-20T01:03:40;16.70;;;10.68;;
54613;SDS011;40514;52.758;6.360;2022-11-20T01:06:29;18.25;;;11.55;;
54613;SDS011;40514;52.758;6.360;2022-11-20T01:08:55;16.80;;;10.48;;
54613;SDS011;40514;52.758;6.360;2022-11-20T01:11:23;16.15;;;10.38;;
54613;SDS011;40514;52.758;6.360;2022-11-20T01:13:51;14.25;;;9.85;;
54613;SDS011;40514;52.758;6.360;2022-11-20T01:16:21;16.83;;;11.02;;
54613;SDS011;40514;52.758;6.360;2022-11-20T01:18:49;15.43;;;10.38;;
54613;SDS011;40514;52.758;6.360;2022-11-20T01:21:17;16.42;;;10.73;;
54613;SDS011;40514;52.758;6.360;2022-11-20T01:24:03;15.60;;;9.45;;
54613;SDS011;40514;52.758;6.360;2022-11-20T01:26:31;15.80;;;9.85;;
54613;SDS011;40514;52.758;6.360;2022-11-20T01:28:59;15.77;;;10.25;;
54613;SDS011;40514;52.758;6.360;2022-11-20T01:33:53;19.35;;;11.70;;
54613;SDS011;40514;52.758;6.360;2022-11-20T01:36:21;17.20;;;11.57;;
54613;SDS011;40514;52.758;6.360;2022-11-20T01:38:55;18.50;;;12.02;;
54613;SDS011;40514;52.758;6.360;2022-11-20T01:41:23;16.67;;;11.18;;
54613;SDS011;40514;52.758;6.360;2022-11-20T01:44:09;20.08;;;11.27;;
54613;SDS011;40514;52.758;6.360;2022-11-20T01:46:37;17.58;;;10.68;;
54613;SDS011;40514;52.758;6.360;2022-11-20T01:49:08;18.48;;;11.75;;
54613;SDS011;40514;52.758;6.360;2022-11-20T01:54:19;15.55;;;10.48;;
54613;SDS011;40514;52.758;6.360;2022-11-20T01:57:10;17.70;;;10.45;;
54613;SDS011;40514;52.758;6.360;2022-11-20T02:02:10;15.60;;;9.60;;
54613;SDS011;40514;52.758;6.360;2022-11-20T02:04:36;15.13;;;9.83;;
54613;SDS011;40514;52.758;6.360;2022-11-20T02:07:02;18.00;;;10.67;;
54613;SDS011;40514;52.758;6.360;2022-11-20T02:09:29;14.35;;;9.48;;
54613;SDS011;40514;52.758;6.360;2022-11-20T02:11:55;14.80;;;10.07;;
54613;SDS011;40514;52.758;6.360;2022-11-20T02:14:21;17.03;;;9.90;;
54613;SDS011;40514;52.758;6.360;2022-11-20T02:16:48;17.88;;;10.43;;
54613;SDS011;40514;52.758;6.360;2022-11-20T02:22:00;13.80;;;9.25;;
54613;SDS011;40514;52.758;6.360;2022-11-20T02:24:31;15.77;;;9.90;;
54613;SDS011;40514;52.758;6.360;2022-11-20T02:26:59;13.47;;;9.03;;
54613;SDS011;40514;52.758;6.360;2022-11-20T02:29:37;14.15;;;9.05;;
54613;SDS011;40514;52.758;6.360;2022-11-20T02:32:03;15.57;;;9.35;;
54613;SDS011;40514;52.758;6.360;2022-11-20T02:34:29;14.87;;;9.37;;
54613;SDS011;40514;52.758;6.360;2022-11-20T02:36:54;13.85;;;8.98;;
54613;SDS011;40514;52.758;6.360;2022-11-20T02:39:22;13.43;;;8.68;;
54613;SDS011;40514;52.758;6.360;2022-11-20T02:41:50;14.45;;;9.02;;
54613;SDS011;40514;52.758;6.360;2022-11-20T02:44:18;14.45;;;8.93;;
54613;SDS011;40514;52.758;6.360;2022-11-20T02:46:44;14.48;;;9.02;;
54613;SDS011;40514;52.758;6.360;2022-11-20T02:49:10;15.70;;;9.70;;
54613;SDS011;40514;52.758;6.360;2022-11-20T02:51:36;15.47;;;9.40;;
54613;SDS011;40514;52.758;6.360;2022-11-20T02:54:01;14.13;;;8.37;;
54613;SDS011;40514;52.758;6.360;2022-11-20T02:56:27;15.23;;;9.23;;
54613;SDS011;40514;52.758;6.360;2022-11-20T02:58:53;16.80;;;9.40;;
54613;SDS011;40514;52.758;6.360;2022-11-20T03:01:18;14.73;;;9.07;;
54613;SDS011;40514;52.758;6.360;2022-11-20T03:03:44;14.37;;;8.97;;
54613;SDS011;40514;52.758;6.360;2022-11-20T03:06:09;15.83;;;9.57;;
54613;SDS011;40514;52.758;6.360;2022-11-20T03:08:35;13.57;;;8.57;;
54613;SDS011;40514;52.758;6.360;2022-11-20T03:11:05;16.88;;;9.90;;
54613;SDS011;40514;52.758;6.360;2022-11-20T03:13:31;16.13;;;9.60;;
54613;SDS011;40514;52.758;6.360;2022-11-20T03:15:57;14.83;;;9.17;;
54613;SDS011;40514;52.758;6.360;2022-11-20T03:18:22;15.17;;;9.20;;
54613;SDS011;40514;52.758;6.360;2022-11-20T03:20:48;15.73;;;8.73;;
54613;SDS011;40514;52.758;6.360;2022-11-20T03:23:13;14.57;;;9.07;;
54613;SDS011;40514;52.758;6.360;2022-11-20T03:25:39;15.05;;;8.68;;
54613;SDS011;40514;52.758;6.360;2022-11-20T03:28:04;16.03;;;9.40;;
54613;SDS011;40514;52.758;6.360;2022-11-20T03:30:30;15.57;;;9.93;;
54613;SDS011;40514;52.758;6.360;2022-11-20T03:32:55;14.20;;;9.10;;
54613;SDS011;40514;52.758;6.360;2022-11-20T03:35:21;15.77;;;9.07;;
54613;SDS011;40514;52.758;6.360;2022-11-20T03:37:46;16.13;;;10.03;;
54613;SDS011;40514;52.758;6.360;2022-11-20T03:40:13;15.20;;;9.63;;
54613;SDS011;40514;52.758;6.360;2022-11-20T03:42:38;14.87;;;9.10;;
54613;SDS011;40514;52.758;6.360;2022-11-20T03:45:10;14.45;;;9.55;;
54613;SDS011;40514;52.758;6.360;2022-11-20T03:47:36;16.03;;;9.93;;
54613;SDS011;40514;52.758;6.360;2022-11-20T03:50:01;16.23;;;10.20;;
54613;SDS011;40514;52.758;6.360;2022-11-20T03:52:28;18.15;;;10.10;;
54613;SDS011;40514;52.758;6.360;2022-11-20T03:54:53;15.53;;;9.70;;
54613;SDS011;40514;52.758;6.360;2022-11-20T03:57:19;13.03;;;8.80;;
54613;SDS011;40514;52.758;6.360;2022-11-20T03:59:44;16.10;;;9.73;;
54613;SDS011;40514;52.758;6.360;2022-11-20T04:02:10;15.50;;;10.00;;
54613;SDS011;40514;52.758;6.360;2022-11-20T04:04:35;13.57;;;8.52;;
54613;SDS011;40514;52.758;6.360;2022-11-20T04:07:01;17.00;;;9.00;;
54613;SDS011;40514;52.758;6.360;2022-11-20T04:09:27;14.82;;;9.68;;
54613;SDS011;40514;52.758;6.360;2022-11-20T04:11:53;16.00;;;10.00;;
54613;SDS011;40514;52.758;6.360;2022-11-20T04:14:19;15.00;;;9.03;;
54613;SDS011;40514;52.758;6.360;2022-11-20T04:19:11;14.45;;;8.55;;
54613;SDS011;40514;52.758;6.360;2022-11-20T04:21:38;15.23;;;9.43;;
54613;SDS011;40514;52.758;6.360;2022-11-20T04:24:04;14.30;;;9.20;;
54613;SDS011;40514;52.758;6.360;2022-11-20T04:26:30;15.30;;;9.57;;
54613;SDS011;40514;52.758;6.360;2022-11-20T04:28:56;13.50;;;8.97;;
54613;SDS011;40514;52.758;6.360;2022-11-20T04:31:23;15.02;;;9.60;;
54613;SDS011;40514;52.758;6.360;2022-11-20T04:33:52;14.57;;;9.20;;
54613;SDS011;40514;52.758;6.360;2022-11-20T04:36:18;15.50;;;10.23;;
54613;SDS011;40514;52.758;6.360;2022-11-20T04:39:06;13.55;;;8.63;;
54613;SDS011;40514;52.758;6.360;2022-11-20T04:41:36;14.15;;;9.50;;
54613;SDS011;40514;52.758;6.360;2022-11-20T04:44:03;14.70;;;9.43;;
54613;SDS011;40514;52.758;6.360;2022-11-20T04:46:37;16.15;;;9.77;;
54613;SDS011;40514;52.758;6.360;2022-11-20T04:49:04;14.73;;;9.27;;
54613;SDS011;40514;52.758;6.360;2022-11-20T04:51:30;14.60;;;8.97;;
54613;SDS011;40514;52.758;6.360;2022-11-20T04:53:56;13.53;;;9.67;;
54613;SDS011;40514;52.758;6.360;2022-11-20T04:56:22;15.50;;;8.55;;
54613;SDS011;40514;52.758;6.360;2022-11-20T04:58:47;16.40;;;9.50;;
54613;SDS011;40514;52.758;6.360;2022-11-20T05:01:16;15.63;;;9.80;;
54613;SDS011;40514;52.758;6.360;2022-11-20T05:03:44;14.98;;;9.50;;
54613;SDS011;40514;52.758;6.360;2022-11-20T05:06:11;15.50;;;10.10;;
54613;SDS011;40514;52.758;6.360;2022-11-20T05:08:38;15.13;;;9.18;;
54613;SDS011;40514;52.758;6.360;2022-11-20T05:11:05;16.23;;;9.27;;
54613;SDS011;40514;52.758;6.360;2022-11-20T05:13:32;16.27;;;9.82;;
54613;SDS011;40514;52.758;6.360;2022-11-20T05:16:11;15.20;;;9.70;;
54613;SDS011;40514;52.758;6.360;2022-11-20T05:18:39;15.57;;;10.00;;
54613;SDS011;40514;52.758;6.360;2022-11-20T05:21:05;14.93;;;9.57;;
54613;SDS011;40514;52.758;6.360;2022-11-20T05:23:32;14.85;;;9.90;;
54613;SDS011;40514;52.758;6.360;2022-11-20T05:25:58;14.57;;;9.15;;
54613;SDS011;40514;52.758;6.360;2022-11-20T05:28:24;15.27;;;9.63;;
54613;SDS011;40514;52.758;6.360;2022-11-20T05:30:51;16.52;;;9.45;;
54613;SDS011;40514;52.758;6.360;2022-11-20T05:33:17;13.60;;;8.95;;
54613;SDS011;40514;52.758;6.360;2022-11-20T05:35:43;16.27;;;9.27;;
54613;SDS011;40514;52.758;6.360;2022-11-20T05:38:08;18.15;;;10.88;;
54613;SDS011;40514;52.758;6.360;2022-11-20T05:40:34;15.73;;;9.63;;
54613;SDS011;40514;52.758;6.360;2022-11-20T05:43:00;15.68;;;10.48;;
54613;SDS011;40514;52.758;6.360;2022-11-20T05:45:26;15.90;;;9.37;;
54613;SDS011;40514;52.758;6.360;2022-11-20T05:47:52;16.27;;;9.70;;
54613;SDS011;40514;52.758;6.360;2022-11-20T05:50:17;15.97;;;9.83;;
54613;SDS011;40514;52.758;6.360;2022-11-20T05:52:43;15.52;;;10.13;;
54613;SDS011;40514;52.758;6.360;2022-11-20T05:55:08;15.35;;;9.30;;
54613;SDS011;40514;52.758;6.360;2022-11-20T05:57:34;14.50;;;9.25;;
54613;SDS011;40514;52.758;6.360;2022-11-20T06:00:00;13.83;;;9.17;;
54613;SDS011;40514;52.758;6.360;2022-11-20T06:02:25;14.23;;;9.00;;
54613;SDS011;40514;52.758;6.360;2022-11-20T06:04:51;15.30;;;9.50;;
54613;SDS011;40514;52.758;6.360;2022-11-20T06:07:16;15.68;;;9.43;;
54613;SDS011;40514;52.758;6.360;2022-11-20T06:09:42;14.63;;;9.60;;
54613;SDS011;40514;52.758;6.360;2022-11-20T06:12:07;14.63;;;9.20;;
54613;SDS011;40514;52.758;6.360;2022-11-20T06:14:33;15.57;;;9.60;;
54613;SDS011;40514;52.758;6.360;2022-11-20T06:16:59;16.07;;;10.23;;
54613;SDS011;40514;52.758;6.360;2022-11-20T06:19:24;16.27;;;10.27;;
54613;SDS011;40514;52.758;6.360;2022-11-20T06:21:50;15.53;;;10.10;;
54613;SDS011;40514;52.758;6.360;2022-11-20T06:24:16;16.20;;;11.00;;
54613;SDS011;40514;52.758;6.360;2022-11-20T06:26:41;17.73;;;10.87;;
54613;SDS011;40514;52.758;6.360;2022-11-20T06:29:07;20.00;;;11.32;;
54613;SDS011;40514;52.758;6.360;2022-11-20T06:31:33;20.60;;;11.10;;
54613;SDS011;40514;52.758;6.360;2022-11-20T06:34:02;18.52;;;10.52;;
54613;SDS011;40514;52.758;6.360;2022-11-20T06:36:31;15.45;;;10.10;;
54613;SDS011;40514;52.758;6.360;2022-11-20T06:38:57;18.57;;;10.23;;
54613;SDS011;40514;52.758;6.360;2022-11-20T06:41:22;15.52;;;10.02;;
54613;SDS011;40514;52.758;6.360;2022-11-20T06:43:48;17.58;;;11.13;;
54613;SDS011;40514;52.758;6.360;2022-11-20T06:46:14;17.05;;;10.48;;
54613;SDS011;40514;52.758;6.360;2022-11-20T06:48:44;17.00;;;10.35;;
54613;SDS011;40514;52.758;6.360;2022-11-20T06:51:11;16.15;;;10.68;;
54613;SDS011;40514;52.758;6.360;2022-11-20T06:53:36;18.07;;;10.43;;
54613;SDS011;40514;52.758;6.360;2022-11-20T06:56:02;15.65;;;10.07;;
54613;SDS011;40514;52.758;6.360;2022-11-20T06:58:29;16.27;;;10.40;;
54613;SDS011;40514;52.758;6.360;2022-11-20T07:01:00;17.73;;;10.80;;
54613;SDS011;40514;52.758;6.360;2022-11-20T07:03:30;18.90;;;10.68;;
54613;SDS011;40514;52.758;6.360;2022-11-20T07:05:56;17.30;;;10.53;;
54613;SDS011;40514;52.758;6.360;2022-11-20T07:08:22;16.98;;;10.48;;
54613;SDS011;40514;52.758;6.360;2022-11-20T07:10:48;15.25;;;9.82;;
54613;SDS011;40514;52.758;6.360;2022-11-20T07:13:14;15.73;;;10.60;;
54613;SDS011;40514;52.758;6.360;2022-11-20T07:15:39;17.77;;;10.13;;
54613;SDS011;40514;52.758;6.360;2022-11-20T07:18:05;16.57;;;10.40;;
54613;SDS011;40514;52.758;6.360;2022-11-20T07:20:30;16.42;;;9.63;;
54613;SDS011;40514;52.758;6.360;2022-11-20T07:22:56;17.42;;;9.57;;
54613;SDS011;40514;52.758;6.360;2022-11-20T07:25:23;15.90;;;10.05;;
54613;SDS011;40514;52.758;6.360;2022-11-20T07:27:49;16.02;;;10.88;;
54613;SDS011;40514;52.758;6.360;2022-11-20T07:30:15;17.67;;;10.50;;
54613;SDS011;40514;52.758;6.360;2022-11-20T07:32:41;18.25;;;10.23;;
54613;SDS011;40514;52.758;6.360;2022-11-20T07:35:06;14.90;;;10.10;;
54613;SDS011;40514;52.758;6.360;2022-11-20T07:37:35;18.10;;;10.53;;
54613;SDS011;40514;52.758;6.360;2022-11-20T07:40:01;15.75;;;9.95;;
54613;SDS011;40514;52.758;6.360;2022-11-20T07:42:27;16.60;;;10.80;;
54613;SDS011;40514;52.758;6.360;2022-11-20T07:44:53;15.90;;;9.77;;
54613;SDS011;40514;52.758;6.360;2022-11-20T07:47:18;15.03;;;10.17;;
54613;SDS011;40514;52.758;6.360;2022-11-20T07:49:44;14.07;;;9.90;;
54613;SDS011;40514;52.758;6.360;2022-11-20T07:52:09;15.20;;;9.73;;
54613;SDS011;40514;52.758;6.360;2022-11-20T07:54:35;15.03;;;10.03;;
54613;SDS011;40514;52.758;6.360;2022-11-20T07:57:00;16.23;;;10.17;;
54613;SDS011;40514;52.758;6.360;2022-11-20T07:59:26;15.85;;;9.70;;
54613;SDS011;40514;52.758;6.360;2022-11-20T08:01:51;15.57;;;10.07;;
54613;SDS011;40514;52.758;6.360;2022-11-20T08:04:17;17.00;;;10.63;;
54613;SDS011;40514;52.758;6.360;2022-11-20T08:06:42;15.38;;;9.55;;
54613;SDS011;40514;52.758;6.360;2022-11-20T08:09:08;16.83;;;9.70;;
54613;SDS011;40514;52.758;6.360;2022-11-20T08:11:34;18.52;;;10.25;;
54613;SDS011;40514;52.758;6.360;2022-11-20T08:14:18;16.00;;;9.52;;
54613;SDS011;40514;52.758;6.360;2022-11-20T08:16:44;17.70;;;10.77;;
54613;SDS011;40514;52.758;6.360;2022-11-20T08:19:12;14.70;;;10.00;;
54613;SDS011;40514;52.758;6.360;2022-11-20T08:21:38;17.00;;;10.32;;
54613;SDS011;40514;52.758;6.360;2022-11-20T08:24:05;16.65;;;10.63;;
54613;SDS011;40514;52.758;6.360;2022-11-20T08:26:31;16.65;;;9.73;;
54613;SDS011;40514;52.758;6.360;2022-11-20T08:28:57;17.23;;;10.77;;
54613;SDS011;40514;52.758;6.360;2022-11-20T08:31:24;15.65;;;9.93;;
54613;SDS011;40514;52.758;6.360;2022-11-20T08:33:50;14.77;;;9.63;;
54613;SDS011;40514;52.758;6.360;2022-11-20T08:36:16;17.63;;;10.40;;
54613;SDS011;40514;52.758;6.360;2022-11-20T08:38:42;16.97;;;10.73;;
54613;SDS011;40514;52.758;6.360;2022-11-20T08:41:11;14.35;;;9.95;;
54613;SDS011;40514;52.758;6.360;2022-11-20T08:43:48;19.05;;;9.77;;
54613;SDS011;40514;52.758;6.360;2022-11-20T08:46:15;15.00;;;9.90;;
54613;SDS011;40514;52.758;6.360;2022-11-20T08:48:41;18.60;;;10.40;;
54613;SDS011;40514;52.758;6.360;2022-11-20T08:51:06;16.80;;;9.95;;
54613;SDS011;40514;52.758;6.360;2022-11-20T08:53:32;15.95;;;10.45;;
54613;SDS011;40514;52.758;6.360;2022-11-20T08:55:57;19.52;;;10.38;;
54613;SDS011;40514;52.758;6.360;2022-11-20T08:58:24;16.07;;;9.60;;
54613;SDS011;40514;52.758;6.360;2022-11-20T09:00:50;16.15;;;10.43;;
54613;SDS011;40514;52.758;6.360;2022-11-20T09:03:15;15.10;;;10.10;;
54613;SDS011;40514;52.758;6.360;2022-11-20T09:05:41;16.50;;;10.23;;
54613;SDS011;40514;52.758;6.360;2022-11-20T09:10:33;17.80;;;12.83;;
54613;SDS011;40514;52.758;6.360;2022-11-20T09:12:58;16.67;;;11.63;;
54613;SDS011;40514;52.758;6.360;2022-11-20T09:15:24;17.27;;;11.32;;
54613;SDS011;40514;52.758;6.360;2022-11-20T09:17:54;15.20;;;10.60;;
54613;SDS011;40514;52.758;6.360;2022-11-20T09:20:25;15.73;;;11.00;;
54613;SDS011;40514;52.758;6.360;2022-11-20T09:25:17;13.15;;;9.70;;
54613;SDS011;40514;52.758;6.360;2022-11-20T09:27:42;16.30;;;11.23;;
54613;SDS011;40514;52.758;6.360;2022-11-20T09:30:10;14.43;;;10.48;;
54613;SDS011;40514;52.758;6.360;2022-11-20T09:32:41;13.10;;;9.80;;
54613;SDS011;40514;52.758;6.360;2022-11-20T09:35:07;15.25;;;9.82;;
54613;SDS011;40514;52.758;6.360;2022-11-20T09:37:33;13.98;;;10.43;;
54613;SDS011;40514;52.758;6.360;2022-11-20T09:39:59;14.63;;;10.67;;
54613;SDS011;40514;52.758;6.360;2022-11-20T09:51:27;13.23;;;9.27;;
54613;SDS011;40514;52.758;6.360;2022-11-20T09:56:15;14.73;;;10.68;;
54613;SDS011;40514;52.758;6.360;2022-11-20T09:58:50;13.35;;;9.63;;
54613;SDS011;40514;52.758;6.360;2022-11-20T10:01:23;13.38;;;9.90;;
54613;SDS011;40514;52.758;6.360;2022-11-20T10:03:56;16.77;;;9.80;;
54613;SDS011;40514;52.758;6.360;2022-11-20T10:06:31;11.50;;;9.32;;
54613;SDS011;40514;52.758;6.360;2022-11-20T10:16:58;11.35;;;9.80;;
54613;SDS011;40514;52.758;6.360;2022-11-20T10:25:18;10.93;;;8.27;;
54613;SDS011;40514;52.758;6.360;2022-11-20T10:30:20;10.32;;;8.27;;
54613;SDS011;40514;52.758;6.360;2022-11-20T10:32:50;9.43;;;8.23;;
54613;SDS011;40514;52.758;6.360;2022-11-20T10:35:21;9.52;;;7.72;;
54613;SDS011;40514;52.758;6.360;2022-11-20T10:37:56;11.07;;;8.43;;
54613;SDS011;40514;52.758;6.360;2022-11-20T10:42:57;10.18;;;8.15;;
54613;SDS011;40514;52.758;6.360;2022-11-20T10:48:20;9.30;;;8.15;;
54613;SDS011;40514;52.758;6.360;2022-11-20T10:53:37;10.00;;;8.07;;
54613;SDS011;40514;52.758;6.360;2022-11-20T10:56:22;8.65;;;7.25;;
54613;SDS011;40514;52.758;6.360;2022-11-20T11:01:26;9.13;;;7.10;;
54613;SDS011;40514;52.758;6.360;2022-11-20T11:03:53;10.82;;;7.65;;
54613;SDS011;40514;52.758;6.360;2022-11-20T11:06:29;9.80;;;7.25;;
54613;SDS011;40514;52.758;6.360;2022-11-20T11:09:02;9.07;;;7.55;;
54613;SDS011;40514;52.758;6.360;2022-11-20T11:11:44;10.25;;;8.43;;
54613;SDS011;40514;52.758;6.360;2022-11-20T11:14:11;11.05;;;8.75;;
54613;SDS011;40514;52.758;6.360;2022-11-20T11:16:52;10.07;;;7.78;;
54613;SDS011;40514;52.758;6.360;2022-11-20T11:19:19;11.38;;;8.85;;
54613;SDS011;40514;52.758;6.360;2022-11-20T11:21:46;11.00;;;8.60;;
54613;SDS011;40514;52.758;6.360;2022-11-20T11:24:20;12.35;;;8.80;;
54613;SDS011;40514;52.758;6.360;2022-11-20T11:26:50;10.00;;;8.00;;
54613;SDS011;40514;52.758;6.360;2022-11-20T11:29:29;10.25;;;8.20;;
54613;SDS011;40514;52.758;6.360;2022-11-20T11:32:11;10.13;;;7.80;;
54613;SDS011;40514;52.758;6.360;2022-11-20T11:34:40;10.77;;;8.07;;
54613;SDS011;40514;52.758;6.360;2022-11-20T11:37:11;10.20;;;7.82;;
54613;SDS011;40514;52.758;6.360;2022-11-20T11:39:42;11.47;;;8.10;;
54613;SDS011;40514;52.758;6.360;2022-11-20T11:42:10;10.43;;;7.68;;
54613;SDS011;40514;52.758;6.360;2022-11-20T11:44:43;10.15;;;7.82;;
54613;SDS011;40514;52.758;6.360;2022-11-20T11:47:36;10.57;;;8.15;;
54613;SDS011;40514;52.758;6.360;2022-11-20T12:00:57;11.35;;;7.97;;
54613;SDS011;40514;52.758;6.360;2022-11-20T12:03:35;10.50;;;7.72;;
54613;SDS011;40514;52.758;6.360;2022-11-20T12:06:05;10.52;;;7.80;;
54613;SDS011;40514;52.758;6.360;2022-11-20T12:08:44;10.95;;;7.65;;
54613;SDS011;40514;52.758;6.360;2022-11-20T12:11:26;10.13;;;7.72;;
54613;SDS011;40514;52.758;6.360;2022-11-20T12:14:17;10.75;;;7.55;;
54613;SDS011;40514;52.758;6.360;2022-11-20T12:16:49;10.05;;;7.82;;
54613;SDS011;40514;52.758;6.360;2022-11-20T12:19:17;10.10;;;7.70;;
54613;SDS011;40514;52.758;6.360;2022-11-20T12:30:11;11.90;;;8.02;;
54613;SDS011;40514;52.758;6.360;2022-11-20T12:38:25;12.10;;;8.55;;
54613;SDS011;40514;52.758;6.360;2022-11-20T12:49:56;14.30;;;10.25;;
54613;SDS011;40514;52.758;6.360;2022-11-20T12:52:37;14.40;;;9.77;;
54613;SDS011;40514;52.758;6.360;2022-11-20T12:58:19;18.63;;;12.98;;
54613;SDS011;40514;52.758;6.360;2022-11-20T13:07:01;12.38;;;9.00;;
54613;SDS011;40514;52.758;6.360;2022-11-20T13:09:30;12.15;;;8.55;;
54613;SDS011;40514;52.758;6.360;2022-11-20T13:12:13;14.35;;;10.10;;
54613;SDS011;40514;52.758;6.360;2022-11-20T13:17:57;14.00;;;10.02;;
54613;SDS011;40514;52.758;6.360;2022-11-20T13:20:25;15.13;;;9.30;;
54613;SDS011;40514;52.758;6.360;2022-11-20T13:22:52;13.70;;;9.38;;
54613;SDS011;40514;52.758;6.360;2022-11-20T13:25:26;12.75;;;9.13;;
54613;SDS011;40514;52.758;6.360;2022-11-20T13:27:54;12.85;;;9.60;;
54613;SDS011;40514;52.758;6.360;2022-11-20T13:30:21;30.00;;;17.55;;
54613;SDS011;40514;52.758;6.360;2022-11-20T13:32:50;16.83;;;12.15;;
54613;SDS011;40514;52.758;6.360;2022-11-20T13:40:34;13.55;;;9.75;;
54613;SDS011;40514;52.758;6.360;2022-11-20T13:43:16;17.88;;;12.20;;
54613;SDS011;40514;52.758;6.360;2022-11-20T13:45:57;20.98;;;13.25;;
54613;SDS011;40514;52.758;6.360;2022-11-20T13:48:31;18.27;;;12.00;;
54613;SDS011;40514;52.758;6.360;2022-11-20T13:54:13;13.63;;;10.05;;
54613;SDS011;40514;52.758;6.360;2022-11-20T14:02:15;26.58;;;14.93;;
54613;SDS011;40514;52.758;6.360;2022-11-20T14:04:44;17.08;;;11.23;;
54613;SDS011;40514;52.758;6.360;2022-11-20T14:07:12;21.10;;;13.98;;
54613;SDS011;40514;52.758;6.360;2022-11-20T14:09:39;17.80;;;11.57;;
54613;SDS011;40514;52.758;6.360;2022-11-20T14:12:19;18.92;;;12.68;;
54613;SDS011;40514;52.758;6.360;2022-11-20T14:14:51;17.10;;;11.63;;
54613;SDS011;40514;52.758;6.360;2022-11-20T14:19:45;25.23;;;14.32;;
54613;SDS011;40514;52.758;6.360;2022-11-20T14:22:23;15.88;;;10.95;;
54613;SDS011;40514;52.758;6.360;2022-11-20T14:27:59;19.02;;;11.50;;
54613;SDS011;40514;52.758;6.360;2022-11-20T14:30:26;25.42;;;15.25;;
54613;SDS011;40514;52.758;6.360;2022-11-20T14:32:55;16.75;;;10.77;;
54613;SDS011;40514;52.758;6.360;2022-11-20T14:35:29;13.18;;;9.73;;
54613;SDS011;40514;52.758;6.360;2022-11-20T14:37:56;20.20;;;12.00;;
54613;SDS011;40514;52.758;6.360;2022-11-20T14:40:26;15.90;;;10.20;;
54613;SDS011;40514;52.758;6.360;2022-11-20T14:43:00;16.40;;;10.77;;
54613;SDS011;40514;52.758;6.360;2022-11-20T14:45:29;15.50;;;10.80;;
54613;SDS011;40514;52.758;6.360;2022-11-20T14:47:55;17.03;;;11.20;;
54613;SDS011;40514;52.758;6.360;2022-11-20T14:50:26;14.77;;;9.98;;
54613;SDS011;40514;52.758;6.360;2022-11-20T14:52:54;13.90;;;9.63;;
54613;SDS011;40514;52.758;6.360;2022-11-20T14:55:53;14.90;;;10.57;;
54613;SDS011;40514;52.758;6.360;2022-11-20T14:58:22;14.90;;;10.30;;
54613;SDS011;40514;52.758;6.360;2022-11-20T15:01:00;17.77;;;11.55;;
54613;SDS011;40514;52.758;6.360;2022-11-20T15:03:35;15.68;;;10.93;;
54613;SDS011;40514;52.758;6.360;2022-11-20T15:06:03;16.05;;;10.88;;
54613;SDS011;40514;52.758;6.360;2022-11-20T15:08:30;14.88;;;10.18;;
54613;SDS011;40514;52.758;6.360;2022-11-20T15:10:55;15.33;;;9.93;;
54613;SDS011;40514;52.758;6.360;2022-11-20T15:13:25;16.47;;;11.03;;
54613;SDS011;40514;52.758;6.360;2022-11-20T15:16:01;17.55;;;12.05;;
54613;SDS011;40514;52.758;6.360;2022-11-20T15:18:30;15.02;;;11.02;;
54613;SDS011;40514;52.758;6.360;2022-11-20T15:21:02;14.63;;;10.07;;
54613;SDS011;40514;52.758;6.360;2022-11-20T15:23:29;14.25;;;9.93;;
54613;SDS011;40514;52.758;6.360;2022-11-20T15:25:54;15.43;;;11.07;;
54613;SDS011;40514;52.758;6.360;2022-11-20T15:28:30;16.38;;;10.02;;
54613;SDS011;40514;52.758;6.360;2022-11-20T15:31:09;15.27;;;10.27;;
54613;SDS011;40514;52.758;6.360;2022-11-20T15:33:37;14.82;;;10.98;;
54613;SDS011;40514;52.758;6.360;2022-11-20T15:36:02;14.90;;;10.57;;
54613;SDS011;40514;52.758;6.360;2022-11-20T15:38:28;14.90;;;10.57;;
54613;SDS011;40514;52.758;6.360;2022-11-20T15:40:54;17.07;;;10.80;;
54613;SDS011;40514;52.758;6.360;2022-11-20T15:43:19;19.97;;;14.07;;
54613;SDS011;40514;52.758;6.360;2022-11-20T15:45:46;21.03;;;15.43;;
54613;SDS011;40514;52.758;6.360;2022-11-20T15:48:16;16.23;;;11.35;;
54613;SDS011;40514;52.758;6.360;2022-11-20T15:50:52;20.85;;;14.02;;
54613;SDS011;40514;52.758;6.360;2022-11-20T15:53:29;15.60;;;11.65;;
54613;SDS011;40514;52.758;6.360;2022-11-20T15:55:54;16.00;;;11.43;;
54613;SDS011;40514;52.758;6.360;2022-11-20T15:58:20;27.93;;;18.97;;
54613;SDS011;40514;52.758;6.360;2022-11-20T16:00:47;20.10;;;13.05;;
54613;SDS011;40514;52.758;6.360;2022-11-20T16:03:13;16.93;;;11.80;;
54613;SDS011;40514;52.758;6.360;2022-11-20T16:05:40;36.15;;;24.75;;
54613;SDS011;40514;52.758;6.360;2022-11-20T16:08:06;17.70;;;12.47;;
54613;SDS011;40514;52.758;6.360;2022-11-20T16:10:31;14.83;;;11.30;;
54613;SDS011;40514;52.758;6.360;2022-11-20T16:12:57;21.70;;;15.27;;
54613;SDS011;40514;52.758;6.360;2022-11-20T16:15:41;18.02;;;12.02;;
54613;SDS011;40514;52.758;6.360;2022-11-20T16:18:11;17.90;;;12.68;;
54613;SDS011;40514;52.758;6.360;2022-11-20T16:20:48;16.05;;;12.30;;
54613;SDS011;40514;52.758;6.360;2022-11-20T16:23:16;14.88;;;10.65;;
54613;SDS011;40514;52.758;6.360;2022-11-20T16:25:42;20.10;;;14.67;;
54613;SDS011;40514;52.758;6.360;2022-11-20T16:28:08;18.70;;;14.55;;
54613;SDS011;40514;52.758;6.360;2022-11-20T16:30:34;22.38;;;16.27;;
54613;SDS011;40514;52.758;6.360;2022-11-20T16:33:00;21.07;;;15.47;;
54613;SDS011;40514;52.758;6.360;2022-11-20T16:35:27;18.15;;;13.25;;
54613;SDS011;40514;52.758;6.360;2022-11-20T16:37:56;18.52;;;13.05;;
54613;SDS011;40514;52.758;6.360;2022-11-20T16:40:23;18.73;;;13.23;;
54613;SDS011;40514;52.758;6.360;2022-11-20T16:42:49;19.67;;;14.25;;